Time;durP1;ratioP1;P1;durP2;ratioP2;P2;SDS_P1;SDS_P2;PMS_P1;PMS_P2;Temp;Humidity;BMP_temperature;BMP_pressure;BME280_temperature;BME280_humidity;BME280_pressure;Samples;Min_cycle;Max_cycle;Signal;HPM_P1;HPM_P2
2021/06/03 00:01:43;;;;;;;4.15;2.13;;;19.40;96.70;;;;;;5095724;28;20139;-77
2021/06/03 00:04:13;;;;;;;3.33;1.98;;;19.30;96.70;;;;;;5119305;27;20055;-77
2021/06/03 00:06:45;;;;;;;3.58;2.28;;;19.20;96.70;;;;;;5100114;28;20141;-77
2021/06/03 00:09:15;;;;;;;5.85;2.40;;;19.10;96.70;;;;;;5103040;28;20479;-77
2021/06/03 00:11:44;;;;;;;7.28;2.20;;;19.10;96.70;;;;;;5084093;28;20557;-76
2021/06/03 00:14:12;;;;;;;3.13;2.13;;;19.20;96.70;;;;;;5095940;28;20046;-76
2021/06/03 00:16:41;;;;;;;3.08;1.98;;;19.20;96.70;;;;;;5078459;28;20073;-76
2021/06/03 00:19:12;;;;;;;4.57;1.83;;;19.30;96.70;;;;;;5096590;28;20406;-76
2021/06/03 00:21:44;;;;;;;2.30;1.60;;;19.30;96.70;;;;;;5094152;28;20502;-77
2021/06/03 00:24:15;;;;;;;3.63;1.27;;;19.40;96.70;;;;;;5082963;28;20524;-77
2021/06/03 00:26:44;;;;;;;2.10;1.40;;;19.40;96.70;;;;;;5095899;28;20047;-76
2021/06/03 00:29:14;;;;;;;2.55;1.30;;;19.30;96.70;;;;;;5094179;28;20051;-76
2021/06/03 00:31:45;;;;;;;2.70;1.30;;;19.30;96.70;;;;;;5082530;28;20043;-77
2021/06/03 00:34:16;;;;;;;1.52;1.30;;;19.20;96.70;;;;;;5095366;28;20138;-77
2021/06/03 00:36:48;;;;;;;2.25;1.40;;;19.20;96.70;;;;;;5081982;28;20043;-77
2021/06/03 00:39:18;;;;;;;2.38;1.15;;;19.20;96.70;;;;;;5096002;28;20047;-76
2021/06/03 00:41:55;;;;;;;1.92;1.10;;;19.20;96.70;;;;;;5092378;28;20505;-76
2021/06/03 00:44:36;;;;;;;3.10;1.42;;;19.10;96.70;;;;;;5097964;28;20117;-77
2021/06/03 00:47:20;;;;;;;4.18;1.65;;;19.00;96.70;;;;;;5117568;27;20104;-77
2021/06/03 00:49:56;;;;;;;2.22;1.48;;;19.00;96.70;;;;;;5119089;27;20097;-77
2021/06/03 00:52:28;;;;;;;4.90;1.40;;;19.00;96.70;;;;;;5125615;27;20082;-77
2021/06/03 00:54:58;;;;;;;3.00;1.60;;;18.90;96.70;;;;;;5100839;27;20032;-77
2021/06/03 00:57:27;;;;;;;3.42;1.30;;;18.80;96.70;;;;;;5103109;27;20032;-77
2021/06/03 00:59:57;;;;;;;2.70;1.40;;;18.80;96.70;;;;;;5129785;27;20053;-77
2021/06/03 01:02:27;;;;;;;1.70;1.10;;;18.70;96.70;;;;;;5081716;28;20615;-77
2021/06/03 01:04:58;;;;;;;3.17;1.50;;;18.50;96.70;;;;;;5098196;27;20913;-77
2021/06/03 01:07:32;;;;;;;2.20;1.17;;;18.60;96.70;;;;;;5111324;27;20036;-77
2021/06/03 01:10:08;;;;;;;1.70;1.20;;;18.60;96.70;;;;;;5101795;27;20043;-77
2021/06/03 01:12:43;;;;;;;2.83;1.63;;;18.60;96.70;;;;;;5098022;27;20044;-77
2021/06/03 01:15:16;;;;;;;3.67;1.40;;;18.60;96.70;;;;;;5103332;27;20047;-77
2021/06/03 01:17:45;;;;;;;2.42;1.30;;;18.60;96.70;;;;;;5102953;27;20035;-76
2021/06/03 01:20:16;;;;;;;2.25;1.50;;;18.50;96.70;;;;;;5102799;27;20032;-76
2021/06/03 01:22:54;;;;;;;3.53;1.40;;;18.50;96.70;;;;;;5101691;27;20044;-76
2021/06/03 01:25:26;;;;;;;4.93;1.98;;;18.50;96.70;;;;;;5104779;27;20035;-76
2021/06/03 01:27:57;;;;;;;3.40;1.50;;;18.50;96.70;;;;;;5086484;27;20847;-77
2021/06/03 01:30:32;;;;;;;2.65;1.45;;;18.50;96.70;;;;;;5103550;27;20055;-76
2021/06/03 01:33:05;;;;;;;1.63;1.40;;;18.50;96.70;;;;;;5098197;27;20032;-76
2021/06/03 01:35:36;;;;;;;2.50;1.55;;;18.40;96.70;;;;;;5097257;28;20412;-76
2021/06/03 01:38:09;;;;;;;4.25;1.70;;;18.40;96.70;;;;;;5099171;27;20532;-76
2021/06/03 01:40:42;;;;;;;2.92;1.40;;;18.40;96.70;;;;;;5081886;28;20054;-76
2021/06/03 01:43:13;;;;;;;3.38;1.50;;;18.30;96.70;;;;;;5097664;27;20073;-76
2021/06/03 01:45:44;;;;;;;3.00;1.70;;;18.20;96.70;;;;;;5098911;28;20153;-76
2021/06/03 01:48:18;;;;;;;3.38;1.60;;;18.20;96.70;;;;;;5102625;27;20047;-76
2021/06/03 01:50:51;;;;;;;1.75;1.55;;;18.00;96.70;;;;;;5097113;28;20556;-76
2021/06/03 01:53:23;;;;;;;2.03;1.40;;;18.10;96.70;;;;;;5101225;27;20520;-76
2021/06/03 01:55:59;;;;;;;3.83;1.60;;;18.20;96.70;;;;;;5092429;28;20047;-76
2021/06/03 01:58:30;;;;;;;1.58;1.35;;;18.30;96.70;;;;;;5097124;27;20059;-76
2021/06/03 02:01:03;;;;;;;2.90;1.45;;;18.20;96.70;;;;;;5098179;28;20036;-76
2021/06/03 02:03:32;;;;;;;2.35;1.42;;;18.20;96.70;;;;;;5100531;27;20057;-76
2021/06/03 02:06:04;;;;;;;2.85;1.30;;;18.00;96.70;;;;;;5100250;27;20239;-76
2021/06/03 02:08:34;;;;;;;2.92;1.40;;;18.00;96.70;;;;;;5097044;28;20047;-76
2021/06/03 02:11:22;;;;;;;2.00;1.50;;;17.90;96.70;;;;;;5088918;28;20097;-76
2021/06/03 02:13:59;;;;;;;3.08;1.50;;;17.90;96.70;;;;;;5092136;27;20043;-76
2021/06/03 02:16:43;;;;;;;2.80;2.08;;;17.90;96.70;;;;;;5098121;27;20047;-76
2021/06/03 02:19:17;;;;;;;2.23;1.70;;;18.00;96.70;;;;;;5098030;27;20552;-76
2021/06/03 02:21:56;;;;;;;1.48;1.38;;;18.00;96.70;;;;;;5102786;27;20120;-76
2021/06/03 02:24:27;;;;;;;4.63;1.80;;;17.90;96.70;;;;;;5095831;27;20089;-76
2021/06/03 02:27:01;;;;;;;1.67;1.52;;;17.80;96.70;;;;;;5100496;27;20405;-76
2021/06/03 02:29:31;;;;;;;4.00;1.63;;;17.70;96.70;;;;;;5098717;27;20088;-76
2021/06/03 02:32:13;;;;;;;2.97;1.70;;;17.60;96.70;;;;;;5102837;27;20044;-76
2021/06/03 02:34:48;;;;;;;2.47;2.15;;;17.70;96.70;;;;;;5099910;27;20177;-76
2021/06/03 02:37:19;;;;;;;1.95;1.70;;;17.80;96.70;;;;;;5084401;28;20047;-76
2021/06/03 02:39:59;;;;;;;2.40;1.77;;;17.80;96.70;;;;;;5083552;28;20032;-76
2021/06/03 02:42:34;;;;;;;2.08;1.52;;;17.70;96.70;;;;;;5083878;27;20040;-76
2021/06/03 02:45:04;;;;;;;2.88;1.65;;;17.50;96.70;;;;;;5099320;28;20109;-76
2021/06/03 02:47:35;;;;;;;3.85;1.58;;;17.30;96.70;;;;;;5096286;28;20067;-76
2021/06/03 02:50:07;;;;;;;3.15;1.90;;;17.30;96.70;;;;;;5078147;28;20044;-76
2021/06/03 02:52:37;;;;;;;2.88;1.60;;;17.40;96.70;;;;;;5100042;27;20055;-76
2021/06/03 02:55:12;;;;;;;4.07;1.38;;;17.40;96.70;;;;;;5101139;27;20054;-76
2021/06/03 02:58:20;;;;;;;3.72;1.42;;;17.40;96.70;;;;;;5032669;28;20469;-76
2021/06/03 03:00:51;;;;;;;2.70;1.30;;;17.40;96.70;;;;;;5040453;28;20521;-76
2021/06/03 03:03:23;;;;;;;3.53;1.98;;;17.40;96.70;;;;;;5018971;28;20063;-77
2021/06/03 03:05:54;;;;;;;7.40;2.55;;;17.40;96.70;;;;;;5038721;28;20246;-77
2021/06/03 03:08:27;;;;;;;2.45;1.40;;;17.40;96.70;;;;;;5018828;28;20045;-76
2021/06/03 03:11:01;;;;;;;1.92;1.33;;;17.40;96.70;;;;;;5024283;28;20264;-77
2021/06/03 03:13:39;;;;;;;3.20;1.50;;;17.50;96.70;;;;;;5022368;28;20049;-76
2021/06/03 03:16:09;;;;;;;1.70;1.50;;;17.40;96.70;;;;;;5021422;28;20195;-76
2021/06/03 03:18:39;;;;;;;2.45;1.45;;;17.20;96.70;;;;;;5039957;28;20148;-77
2021/06/03 03:21:11;;;;;;;2.42;1.40;;;17.20;96.70;;;;;;5037911;28;20547;-76
2021/06/03 03:23:47;;;;;;;1.70;1.50;;;17.20;96.70;;;;;;5033629;28;20061;-76
2021/06/03 03:26:18;;;;;;;5.15;1.42;;;17.10;96.70;;;;;;5037928;28;20343;-76
2021/06/03 03:28:51;;;;;;;1.55;1.20;;;17.00;96.70;;;;;;5039280;28;20063;-76
2021/06/03 03:31:20;;;;;;;1.73;1.35;;;17.00;96.70;;;;;;5094627;28;20043;-77
2021/06/03 03:33:51;;;;;;;2.45;1.50;;;17.00;96.70;;;;;;5117992;27;20131;-77
2021/06/03 03:36:21;;;;;;;2.10;1.48;;;17.10;96.70;;;;;;5104180;27;20043;-76
2021/06/03 03:38:52;;;;;;;3.47;1.42;;;17.10;96.70;;;;;;5096046;28;20071;-76
2021/06/03 03:41:30;;;;;;;1.38;1.00;;;17.00;96.70;;;;;;5085425;28;20036;-76
2021/06/03 03:44:16;;;;;;;1.95;1.20;;;16.90;96.70;;;;;;5096532;28;20112;-76
2021/06/03 03:46:58;;;;;;;2.90;1.55;;;16.80;96.70;;;;;;5100108;28;20036;-76
2021/06/03 03:49:34;;;;;;;2.22;1.30;;;16.80;96.70;;;;;;5099184;28;20038;-76
2021/06/03 03:52:05;;;;;;;2.00;1.42;;;16.90;96.70;;;;;;5095303;28;20052;-76
2021/06/03 03:54:35;;;;;;;4.30;1.42;;;16.90;96.70;;;;;;5082545;28;20046;-76
2021/06/03 03:57:07;;;;;;;2.83;1.40;;;16.90;96.70;;;;;;5094211;28;20101;-76
2021/06/03 03:59:38;;;;;;;2.20;1.45;;;16.90;96.70;;;;;;5096964;28;20044;-76
2021/06/03 04:02:09;;;;;;;2.60;1.45;;;16.90;96.70;;;;;;5085025;28;20059;-77
2021/06/03 04:04:39;;;;;;;3.33;1.70;;;17.00;96.70;;;;;;5098900;28;20501;-76
2021/06/03 04:07:09;;;;;;;4.60;1.67;;;17.00;96.70;;;;;;5096090;28;20077;-76
2021/06/03 04:09:41;;;;;;;3.20;1.38;;;17.10;96.70;;;;;;5097394;28;20027;-76
2021/06/03 04:12:12;;;;;;;2.10;1.48;;;17.20;96.70;;;;;;5096158;28;20700;-76
2021/06/03 04:14:45;;;;;;;2.75;1.48;;;17.30;96.70;;;;;;5099373;28;20043;-77
2021/06/03 04:17:14;;;;;;;5.15;2.78;;;17.20;96.70;;;;;;5100379;28;20059;-76
2021/06/03 04:19:46;;;;;;;2.85;1.70;;;17.20;96.70;;;;;;5107912;27;20548;-76
2021/06/03 04:22:17;;;;;;;4.65;2.38;;;17.20;96.70;;;;;;5098288;28;20063;-77
2021/06/03 04:24:47;;;;;;;3.25;1.80;;;17.20;96.70;;;;;;5101585;27;20043;-76
2021/06/03 04:27:17;;;;;;;1.98;1.58;;;17.20;96.70;;;;;;5101348;27;20092;-76
2021/06/03 04:29:48;;;;;;;2.75;1.52;;;17.10;96.70;;;;;;5098601;27;20039;-76
2021/06/03 04:32:17;;;;;;;4.43;1.52;;;17.20;96.70;;;;;;5091135;28;20056;-76
2021/06/03 04:34:47;;;;;;;2.13;1.50;;;17.30;96.70;;;;;;5087869;27;20536;-77
2021/06/03 04:37:17;;;;;;;3.15;1.83;;;17.30;96.70;;;;;;5107745;27;20512;-77
2021/06/03 04:39:47;;;;;;;4.05;2.03;;;17.30;96.70;;;;;;5098956;28;20071;-76
2021/06/03 04:42:16;;;;;;;3.90;1.92;;;17.40;96.70;;;;;;5100009;27;20047;-77
2021/06/03 04:44:47;;;;;;;2.28;1.63;;;17.40;96.70;;;;;;5096547;27;20527;-76
2021/06/03 04:47:16;;;;;;;3.85;1.95;;;17.40;96.70;;;;;;5099384;27;20466;-77
2021/06/03 04:49:45;;;;;;;5.60;2.13;;;17.50;96.70;;;;;;5116793;27;20043;-76
2021/06/03 04:52:28;;;;;;;2.42;1.58;;;17.60;96.70;;;;;;5100178;27;20059;-77
2021/06/03 04:54:59;;;;;;;3.70;2.13;;;17.60;96.70;;;;;;5113915;27;20063;-77
2021/06/03 04:57:30;;;;;;;5.88;2.30;;;17.60;96.70;;;;;;5121240;27;20539;-77
2021/06/03 05:00:01;;;;;;;4.18;2.28;;;17.60;96.70;;;;;;5101078;27;20059;-77
2021/06/03 05:02:30;;;;;;;3.65;2.00;;;17.60;96.70;;;;;;5097529;27;20547;-77
2021/06/03 05:04:59;;;;;;;4.05;2.30;;;17.60;96.70;;;;;;5100021;28;20320;-77
2021/06/03 05:07:27;;;;;;;5.53;2.50;;;17.60;96.70;;;;;;5101036;27;20044;-77
2021/06/03 05:09:55;;;;;;;3.97;2.20;;;17.60;96.70;;;;;;5098659;27;20056;-77
2021/06/03 05:12:23;;;;;;;5.38;2.40;;;17.60;96.70;;;;;;5102111;27;20039;-77
2021/06/03 05:14:51;;;;;;;4.55;2.25;;;17.50;96.70;;;;;;5084117;28;20043;-77
2021/06/03 05:17:21;;;;;;;4.05;2.13;;;17.50;96.70;;;;;;5097384;27;20047;-77
2021/06/03 05:19:49;;;;;;;3.72;1.73;;;17.60;96.70;;;;;;5100143;27;20046;-77
2021/06/03 05:22:18;;;;;;;3.35;1.92;;;17.80;96.70;;;;;;5098606;27;20043;-76
2021/06/03 05:24:46;;;;;;;5.70;2.05;;;17.80;96.70;;;;;;5118419;27;20042;-77
2021/06/03 05:27:14;;;;;;;5.97;2.40;;;17.90;96.70;;;;;;5096919;27;20076;-78
2021/06/03 05:29:42;;;;;;;8.23;3.08;;;17.80;96.70;;;;;;5100975;27;20055;-77
2021/06/03 05:32:10;;;;;;;9.18;4.45;;;17.90;96.70;;;;;;5104127;27;20599;-77
2021/06/03 05:34:39;;;;;;;11.35;6.57;;;17.90;96.70;;;;;;5103132;27;20624;-77
2021/06/03 05:37:07;;;;;;;12.50;5.35;;;17.80;96.70;;;;;;5100367;27;20449;-77
2021/06/03 05:39:35;;;;;;;11.70;6.03;;;17.70;96.70;;;;;;5101610;27;20051;-77
2021/06/03 05:42:04;;;;;;;12.13;6.47;;;17.90;96.70;;;;;;5093805;27;20922;-76
2021/06/03 05:44:33;;;;;;;13.15;8.32;;;17.90;96.70;;;;;;5103526;27;20232;-76
2021/06/03 05:47:01;;;;;;;11.20;7.20;;;17.90;96.70;;;;;;5097658;27;20055;-76
2021/06/03 05:49:34;;;;;;;9.30;6.38;;;17.90;96.70;;;;;;5078848;28;20057;-76
2021/06/03 05:52:04;;;;;;;7.70;5.97;;;17.90;96.70;;;;;;5105088;27;20572;-76
2021/06/03 05:54:33;;;;;;;16.65;6.60;;;18.00;96.70;;;;;;5083292;28;20087;-76
2021/06/03 05:57:01;;;;;;;9.25;5.63;;;18.00;96.70;;;;;;5100738;27;20065;-76
2021/06/03 05:59:29;;;;;;;5.90;4.97;;;18.00;96.70;;;;;;5096439;28;20056;-75
2021/06/03 06:02:05;;;;;;;8.75;4.65;;;18.00;96.70;;;;;;5098866;27;20087;-75
2021/06/03 06:07:22;;;;;;;9.80;4.50;;;18.30;96.70;;;;;;5099917;27;20039;-76
2021/06/03 06:09:50;;;;;;;11.25;6.55;;;18.40;96.70;;;;;;5099632;27;20035;-75
2021/06/03 06:12:18;;;;;;;13.93;7.25;;;18.50;96.70;;;;;;5100407;27;20043;-76
2021/06/03 06:14:46;;;;;;;12.60;7.32;;;18.50;96.70;;;;;;5096483;27;20043;-77
2021/06/03 06:17:14;;;;;;;13.10;6.65;;;18.50;96.70;;;;;;5099266;27;20035;-76
2021/06/03 06:19:42;;;;;;;10.23;5.35;;;18.50;96.70;;;;;;5098452;28;20038;-76
2021/06/03 06:22:10;;;;;;;6.88;3.78;;;18.60;96.70;;;;;;5096403;28;20059;-76
2021/06/03 06:24:40;;;;;;;9.10;3.90;;;18.70;96.70;;;;;;5095265;27;20255;-76
2021/06/03 06:27:09;;;;;;;6.45;3.53;;;18.70;96.70;;;;;;5096976;27;20039;-76
2021/06/03 06:29:37;;;;;;;6.15;3.17;;;18.70;96.70;;;;;;5099763;27;20047;-76
2021/06/03 06:32:06;;;;;;;6.15;2.90;;;18.80;96.70;;;;;;5103368;27;20039;-75
2021/06/03 06:34:34;;;;;;;5.25;2.83;;;18.90;96.70;;;;;;5081262;28;20090;-76
2021/06/03 06:37:03;;;;;;;3.08;2.47;;;19.00;96.70;;;;;;5099532;27;20043;-76
2021/06/03 06:39:31;;;;;;;3.13;2.45;;;19.10;96.70;;;;;;5104829;27;20048;-75
2021/06/03 06:42:00;;;;;;;4.47;2.35;;;19.10;96.70;;;;;;5105440;27;20704;-77
2021/06/03 06:44:28;;;;;;;4.43;2.55;;;19.20;96.70;;;;;;5097304;28;20051;-76
2021/06/03 06:46:56;;;;;;;5.57;2.60;;;19.30;96.70;;;;;;5101504;27;20730;-76
2021/06/03 06:49:25;;;;;;;6.95;2.78;;;19.30;96.70;;;;;;5099971;28;20094;-76
2021/06/03 06:51:53;;;;;;;6.82;2.78;;;19.50;96.70;;;;;;5098172;28;20068;-77
2021/06/03 06:54:21;;;;;;;4.68;2.30;;;19.50;96.70;;;;;;5080476;28;20043;-76
2021/06/03 06:56:49;;;;;;;4.35;2.65;;;19.60;96.70;;;;;;5099187;27;20048;-76
2021/06/03 06:59:19;;;;;;;5.13;2.80;;;19.70;96.70;;;;;;5099673;27;20512;-76
2021/06/03 07:01:48;;;;;;;5.72;3.38;;;19.70;96.70;;;;;;5101550;27;20035;-76
2021/06/03 07:04:16;;;;;;;9.25;3.00;;;19.80;96.70;;;;;;5095195;27;20484;-76
2021/06/03 07:06:45;;;;;;;5.45;2.70;;;19.90;96.70;;;;;;5100610;27;20032;-77
2021/06/03 07:09:13;;;;;;;4.65;2.53;;;20.00;96.70;;;;;;5093866;28;20033;-76
2021/06/03 07:11:41;;;;;;;7.50;2.92;;;20.10;96.70;;;;;;5096663;27;20166;-76
2021/06/03 07:14:14;;;;;;;4.93;2.35;;;20.10;96.70;;;;;;5095617;28;21115;-77
2021/06/03 07:16:44;;;;;;;5.10;2.60;;;20.10;96.70;;;;;;5098756;27;20040;-77
2021/06/03 07:19:13;;;;;;;2.40;2.00;;;20.30;96.70;;;;;;5098544;27;20065;-76
2021/06/03 07:21:41;;;;;;;3.75;2.10;;;20.30;96.70;;;;;;5080334;27;20046;-76
2021/06/03 07:24:09;;;;;;;3.67;2.15;;;20.40;96.50;;;;;;5098851;27;20043;-76
2021/06/03 07:26:38;;;;;;;2.53;2.10;;;20.30;96.70;;;;;;5103369;27;20046;-76
2021/06/03 07:29:06;;;;;;;4.78;2.05;;;20.40;96.70;;;;;;5098220;28;20039;-76
2021/06/03 07:31:35;;;;;;;4.18;2.03;;;20.40;96.70;;;;;;5098277;28;20281;-76
2021/06/03 07:34:06;;;;;;;4.13;2.00;;;20.40;96.60;;;;;;5095382;28;20451;-76
2021/06/03 07:36:35;;;;;;;4.18;1.90;;;20.60;96.50;;;;;;5100336;27;20126;-76
2021/06/03 07:39:06;;;;;;;3.15;1.77;;;20.70;95.70;;;;;;5096649;28;20039;-77
2021/06/03 07:41:35;;;;;;;4.93;1.67;;;20.70;96.20;;;;;;5099593;27;20524;-76
2021/06/03 07:44:04;;;;;;;4.53;1.90;;;20.80;95.50;;;;;;5096234;28;20034;-76
2021/06/03 07:46:33;;;;;;;3.30;1.67;;;21.00;95.70;;;;;;5096563;28;20054;-76
2021/06/03 07:49:02;;;;;;;5.05;1.85;;;21.00;95.60;;;;;;5117395;27;20036;-77
2021/06/03 07:51:32;;;;;;;2.53;1.98;;;21.20;95.00;;;;;;5098610;28;20052;-77
2021/06/03 07:54:03;;;;;;;4.93;1.52;;;21.20;94.60;;;;;;5098210;28;20062;-77
2021/06/03 07:56:31;;;;;;;2.60;1.70;;;21.30;95.00;;;;;;5097918;28;20055;-76
2021/06/03 07:59:00;;;;;;;3.20;1.90;;;21.20;94.90;;;;;;5094776;27;20088;-76
2021/06/03 08:01:28;;;;;;;2.97;2.25;;;21.30;95.00;;;;;;5099880;28;20046;-76
2021/06/03 08:03:56;;;;;;;2.30;1.58;;;21.40;94.70;;;;;;5103883;28;20043;-76
2021/06/03 08:06:25;;;;;;;3.88;1.42;;;21.40;94.70;;;;;;5096987;27;20143;-76
2021/06/03 08:08:55;;;;;;;2.63;1.33;;;21.50;95.00;;;;;;5102891;27;20491;-76
2021/06/03 08:11:23;;;;;;;4.10;1.90;;;21.70;93.50;;;;;;5099936;27;20050;-76
2021/06/03 08:13:51;;;;;;;9.38;2.10;;;21.70;94.30;;;;;;5103564;27;20036;-75
2021/06/03 08:16:20;;;;;;;3.40;1.88;;;21.80;94.40;;;;;;5103431;27;20047;-76
2021/06/03 08:18:49;;;;;;;3.58;1.65;;;21.90;92.30;;;;;;5098959;28;20072;-76
2021/06/03 08:21:17;;;;;;;2.42;1.70;;;21.90;91.40;;;;;;5085554;28;20449;-75
2021/06/03 08:23:46;;;;;;;6.45;2.10;;;21.90;91.40;;;;;;5104980;27;20065;-75
2021/06/03 08:26:15;;;;;;;3.13;1.50;;;22.00;91.90;;;;;;5102449;27;20031;-75
2021/06/03 08:28:44;;;;;;;3.97;1.60;;;22.00;91.10;;;;;;5096545;27;20382;-76
2021/06/03 08:31:12;;;;;;;10.45;2.90;;;22.00;91.50;;;;;;5097633;28;20050;-75
2021/06/03 08:33:41;;;;;;;7.68;2.75;;;22.20;92.60;;;;;;5099322;28;20058;-76
2021/06/03 08:36:09;;;;;;;4.13;2.00;;;22.40;92.90;;;;;;5097817;27;20109;-76
2021/06/03 08:38:37;;;;;;;6.88;2.60;;;22.50;91.20;;;;;;5102259;27;20050;-76
2021/06/03 08:41:06;;;;;;;5.07;2.03;;;22.50;90.70;;;;;;5097905;27;20037;-75
2021/06/03 08:43:36;;;;;;;3.10;1.85;;;22.60;90.60;;;;;;5100355;27;20051;-76
2021/06/03 08:46:04;;;;;;;4.32;2.10;;;22.70;90.00;;;;;;5101310;27;20327;-76
2021/06/03 08:48:33;;;;;;;4.30;2.38;;;22.70;88.80;;;;;;5100909;27;20636;-76
2021/06/03 08:51:04;;;;;;;5.63;1.80;;;22.80;89.20;;;;;;5102590;27;20470;-75
2021/06/03 08:53:33;;;;;;;3.78;1.80;;;22.80;88.40;;;;;;5098090;28;20126;-75
2021/06/03 08:56:19;;;;;;;5.93;2.28;;;22.90;88.50;;;;;;5115340;27;20039;-76
2021/06/03 08:58:51;;;;;;;2.47;1.75;;;22.90;89.20;;;;;;5092446;27;20056;-75
2021/06/03 09:01:20;;;;;;;3.97;1.90;;;23.00;88.70;;;;;;5084924;28;20444;-75
2021/06/03 09:03:49;;;;;;;4.38;2.03;;;23.10;89.30;;;;;;5095158;27;20571;-76
2021/06/03 09:06:18;;;;;;;3.35;2.08;;;23.10;87.80;;;;;;5096128;27;20528;-76
2021/06/03 09:08:52;;;;;;;2.67;1.65;;;23.20;86.60;;;;;;5100835;27;20046;-77
2021/06/03 09:11:20;;;;;;;2.15;1.50;;;23.30;86.60;;;;;;5101588;27;20071;-77
2021/06/03 09:13:53;;;;;;;3.40;1.77;;;23.40;85.00;;;;;;5099858;27;20094;-77
2021/06/03 09:16:25;;;;;;;6.55;1.83;;;23.40;85.20;;;;;;5115028;27;20047;-75
2021/06/03 09:18:58;;;;;;;3.65;1.92;;;23.50;84.50;;;;;;5081603;28;20071;-75
2021/06/03 09:21:29;;;;;;;2.10;1.50;;;23.60;84.90;;;;;;5098147;27;20401;-76
2021/06/03 09:24:00;;;;;;;3.50;1.58;;;23.80;84.60;;;;;;5098879;28;20039;-75
2021/06/03 09:26:33;;;;;;;1.90;1.60;;;23.80;83.90;;;;;;5099723;27;20046;-75
2021/06/03 09:29:07;;;;;;;3.72;1.70;;;23.90;82.70;;;;;;5097572;27;20487;-75
2021/06/03 09:31:36;;;;;;;3.72;1.05;;;24.00;80.60;;;;;;5095767;27;20517;-75
2021/06/03 09:34:10;;;;;;;3.30;1.30;;;24.10;78.50;;;;;;5097139;27;20102;-75
2021/06/03 09:36:41;;;;;;;1.83;0.98;;;24.30;78.10;;;;;;5104623;27;20051;-75
2021/06/03 09:39:20;;;;;;;3.40;1.00;;;24.20;74.00;;;;;;5119950;27;20032;-75
2021/06/03 09:41:51;;;;;;;3.53;1.38;;;24.10;76.10;;;;;;5095657;27;20051;-75
2021/06/03 09:44:24;;;;;;;4.35;1.38;;;24.20;79.30;;;;;;5097991;27;20035;-75
2021/06/03 09:46:54;;;;;;;3.30;1.10;;;24.30;78.90;;;;;;5100376;27;20411;-75
2021/06/03 09:49:28;;;;;;;2.80;1.45;;;24.30;78.50;;;;;;5101984;27;20047;-75
2021/06/03 09:51:59;;;;;;;2.15;1.52;;;24.30;78.00;;;;;;5097892;28;20043;-74
2021/06/03 09:54:29;;;;;;;2.95;1.40;;;24.40;77.60;;;;;;5101515;27;20039;-75
2021/06/03 09:57:01;;;;;;;4.35;1.40;;;24.60;78.10;;;;;;5097623;27;20537;-75
2021/06/03 09:59:34;;;;;;;2.33;1.20;;;24.60;76.90;;;;;;5100662;27;20066;-75
2021/06/03 10:02:08;;;;;;;1.77;1.20;;;24.70;76.40;;;;;;5095329;28;20146;-75
2021/06/03 10:04:40;;;;;;;2.40;1.40;;;24.80;76.80;;;;;;5102390;27;20051;-75
2021/06/03 10:07:19;;;;;;;2.30;1.30;;;24.90;75.30;;;;;;5100377;27;20040;-75
2021/06/03 10:10:07;;;;;;;1.85;1.17;;;24.90;74.10;;;;;;5093044;27;20487;-75
2021/06/03 10:12:43;;;;;;;3.20;1.02;;;25.20;73.30;;;;;;5083312;28;20496;-75
2021/06/03 10:15:35;;;;;;;1.23;1.00;;;25.30;70.70;;;;;;5098359;27;20626;-75
2021/06/03 10:18:06;;;;;;;2.60;1.08;;;25.50;70.70;;;;;;5096742;27;20122;-75
2021/06/03 10:20:39;;;;;;;2.60;1.20;;;25.50;71.60;;;;;;5098087;27;20055;-75
2021/06/03 10:23:10;;;;;;;2.80;1.38;;;25.30;71.20;;;;;;5100691;27;20043;-74
2021/06/03 10:25:42;;;;;;;3.15;1.10;;;25.50;72.30;;;;;;5101546;27;20452;-74
2021/06/03 10:28:14;;;;;;;5.43;1.23;;;25.70;71.20;;;;;;5097512;27;20092;-75
2021/06/03 10:30:47;;;;;;;2.40;1.20;;;25.90;70.60;;;;;;5099428;27;20043;-75
2021/06/03 10:33:17;;;;;;;2.33;1.15;;;25.80;68.90;;;;;;5098335;28;20047;-74
2021/06/03 10:35:47;;;;;;;2.47;1.13;;;26.00;69.20;;;;;;5094299;28;20054;-75
2021/06/03 10:38:18;;;;;;;2.65;1.20;;;26.00;68.10;;;;;;5094944;27;20036;-75
2021/06/03 10:40:48;;;;;;;2.05;1.13;;;26.20;67.80;;;;;;5097367;27;20043;-75
2021/06/03 10:43:17;;;;;;;2.95;1.23;;;26.20;67.00;;;;;;5100114;27;20088;-75
2021/06/03 10:45:47;;;;;;;3.35;1.33;;;26.20;68.10;;;;;;5097896;27;20078;-75
2021/06/03 10:48:16;;;;;;;1.98;1.30;;;26.40;66.80;;;;;;5097839;28;20044;-75
2021/06/03 10:50:46;;;;;;;3.35;1.00;;;26.50;67.70;;;;;;5097703;27;20158;-75
2021/06/03 10:53:19;;;;;;;1.73;1.20;;;26.70;67.40;;;;;;5094371;28;20400;-74
2021/06/03 10:55:49;;;;;;;2.33;1.30;;;26.90;67.70;;;;;;5080094;28;20054;-74
2021/06/03 10:58:31;;;;;;;3.85;1.20;;;27.10;68.50;;;;;;5098148;28;20039;-74
2021/06/03 11:01:04;;;;;;;2.50;1.33;;;27.40;68.30;;;;;;5096482;28;20078;-74
2021/06/03 11:03:38;;;;;;;4.07;1.35;;;27.20;68.00;;;;;;5100048;27;20048;-75
2021/06/03 11:06:09;;;;;;;2.95;1.20;;;27.00;68.40;;;;;;5100105;28;20040;-75
2021/06/03 11:08:39;;;;;;;3.65;1.30;;;26.90;69.50;;;;;;5096947;27;20402;-74
2021/06/03 11:11:28;;;;;;;2.78;1.52;;;27.20;70.30;;;;;;5096695;28;20474;-75
2021/06/03 11:14:07;;;;;;;2.13;1.27;;;27.40;69.60;;;;;;5096202;27;20466;-75
2021/06/03 11:17:02;;;;;;;2.92;1.23;;;27.40;68.50;;;;;;5095282;28;20109;-75
2021/06/03 11:19:30;;;;;;;3.15;1.20;;;27.60;69.20;;;;;;5080789;28;20535;-74
2021/06/03 11:22:07;;;;;;;2.55;1.30;;;27.70;67.90;;;;;;5093911;28;20051;-75
2021/06/03 11:24:49;;;;;;;2.53;1.30;;;27.80;67.60;;;;;;5096179;28;20066;-74
2021/06/03 11:27:19;;;;;;;2.13;1.30;;;27.70;67.50;;;;;;5098478;28;20039;-74
2021/06/03 11:29:56;;;;;;;1.33;0.93;;;28.00;67.00;;;;;;5094354;27;20059;-74
2021/06/03 11:32:32;;;;;;;2.25;1.10;;;28.10;67.20;;;;;;5094585;28;20160;-74
2021/06/03 11:35:04;;;;;;;2.72;1.20;;;28.20;67.70;;;;;;5098739;27;20127;-75
2021/06/03 11:37:45;;;;;;;1.60;1.50;;;28.30;67.40;;;;;;5102746;27;20044;-74
2021/06/03 11:40:16;;;;;;;2.78;1.30;;;28.10;67.60;;;;;;5098286;28;20043;-74
2021/06/03 11:42:46;;;;;;;2.78;1.10;;;28.20;66.70;;;;;;5096470;28;20048;-75
2021/06/03 11:45:33;;;;;;;1.90;1.30;;;28.20;67.70;;;;;;5096762;28;20054;-74
2021/06/03 11:48:12;;;;;;;;;;;28.40;66.40;;;;;;5097603;28;20464;-74
2021/06/03 11:51:05;;;;;;;2.08;1.45;;;28.40;67.20;;;;;;5099596;28;19924;-74
2021/06/03 11:53:51;;;;;;;2.33;1.60;;;28.30;65.90;;;;;;5098653;28;20598;-75
2021/06/03 11:56:21;;;;;;;1.77;1.15;;;28.30;65.00;;;;;;5101890;28;20044;-75
2021/06/03 11:58:54;;;;;;;1.33;1.02;;;28.40;65.20;;;;;;5099859;28;20055;-75
2021/06/03 12:01:33;;;;;;;1.48;1.23;;;28.50;65.70;;;;;;5094585;28;20052;-75
2021/06/03 12:04:09;;;;;;;3.00;1.30;;;28.40;65.10;;;;;;5089830;28;20496;-75
2021/06/03 12:06:41;;;;;;;2.55;1.20;;;28.60;66.70;;;;;;5094878;28;20043;-75
2021/06/03 12:09:23;;;;;;;1.60;1.20;;;28.60;65.70;;;;;;5098491;28;20044;-74
2021/06/03 12:11:54;;;;;;;2.40;1.15;;;28.60;65.70;;;;;;5096752;28;20100;-74
2021/06/03 12:14:25;;;;;;;1.70;1.20;;;28.80;66.00;;;;;;5099740;28;20044;-74
2021/06/03 12:16:55;;;;;;;2.20;1.10;;;29.00;64.70;;;;;;5095875;28;20060;-74
2021/06/03 12:19:27;;;;;;;1.67;1.20;;;29.20;65.30;;;;;;5095456;28;20118;-74
2021/06/03 12:21:58;;;;;;;2.78;1.40;;;29.10;64.90;;;;;;5112767;28;20040;-74
2021/06/03 12:24:42;;;;;;;2.70;0.90;;;29.20;65.30;;;;;;5118718;27;20051;-74
2021/06/03 12:27:21;;;;;;;1.02;0.90;;;29.40;65.10;;;;;;5091080;28;20039;-74
2021/06/03 12:29:50;;;;;;;1.52;0.98;;;29.50;65.00;;;;;;5096634;28;20055;-74
2021/06/03 12:32:20;;;;;;;1.75;1.30;;;29.50;65.10;;;;;;5106890;28;20039;-75
2021/06/03 12:34:50;;;;;;;2.47;1.17;;;29.50;64.70;;;;;;5098364;28;20035;-75
2021/06/03 12:37:25;;;;;;;1.92;1.20;;;29.40;65.30;;;;;;5098092;28;20101;-75
2021/06/03 12:39:54;;;;;;;1.88;1.08;;;29.40;64.80;;;;;;5095478;28;20035;-75
2021/06/03 12:42:25;;;;;;;1.58;1.38;;;29.40;64.70;;;;;;5099509;28;20050;-74
2021/06/03 12:44:55;;;;;;;1.92;0.90;;;29.20;64.40;;;;;;5095174;28;20209;-75
2021/06/03 12:47:24;;;;;;;3.25;1.13;;;29.10;62.80;;;;;;5100632;28;20043;-74
2021/06/03 12:50:06;;;;;;;2.90;1.40;;;29.10;63.90;;;;;;5101590;27;20067;-75
2021/06/03 12:52:35;;;;;;;1.63;1.17;;;29.20;63.90;;;;;;5123580;27;20054;-74
2021/06/03 12:55:05;;;;;;;1.63;1.30;;;29.30;63.50;;;;;;5102297;27;20047;-74
2021/06/03 12:57:35;;;;;;;3.10;1.40;;;29.40;64.80;;;;;;5101100;28;20047;-75
2021/06/03 13:00:09;;;;;;;3.53;1.27;;;29.60;65.40;;;;;;5100817;27;20109;-74
2021/06/03 13:02:37;;;;;;;3.00;1.17;;;29.90;65.10;;;;;;5101370;28;20132;-75
2021/06/03 13:05:12;;;;;;;1.40;1.30;;;30.10;64.30;;;;;;5100886;27;20032;-75
2021/06/03 13:07:44;;;;;;;3.67;1.40;;;30.50;63.90;;;;;;5094403;28;20057;-74
2021/06/03 13:10:16;;;;;;;2.88;1.15;;;30.80;61.40;;;;;;5101987;27;20044;-75
2021/06/03 13:12:47;;;;;;;3.40;1.30;;;30.90;62.20;;;;;;5096436;27;20238;-74